createdAt,value
2017-05-01T00:01:08.384Z,73.80
2017-05-01T00:03:36.891Z,74.10
2017-05-01T00:06:06.123Z,74.30
2017-05-01T00:08:34.461Z,74.60
2017-05-01T00:17:05.320Z,75.30
2017-05-01T00:19:34.394Z,75.10
2017-05-01T00:22:02.720Z,75.40
2017-05-01T00:24:31.175Z,75.60
2017-05-01T00:26:59.508Z,75.70
2017-05-01T00:29:27.827Z,75.80
2017-05-01T00:31:57.125Z,75.80
2017-05-01T00:34:26.194Z,75.80
2017-05-01T00:36:54.532Z,76.20
2017-05-01T00:39:23.181Z,76.50
2017-05-01T00:41:52.252Z,76.80
2017-05-01T00:44:20.616Z,77.00
2017-05-01T00:46:49.231Z,77.20
2017-05-01T00:49:17.563Z,77.60
2017-05-01T00:51:45.890Z,77.90
2017-05-01T00:54:14.483Z,77.70
2017-05-01T00:56:42.801Z,77.70
2017-05-01T00:59:11.133Z,78.20
2017-05-01T01:01:40.536Z,78.20
2017-05-01T01:04:08.860Z,78.60
2017-05-01T01:06:37.344Z,78.70
2017-05-01T01:09:11.448Z,78.50
2017-05-01T01:11:39.775Z,79.00
2017-05-01T01:14:08.841Z,79.30
2017-05-01T01:16:37.453Z,79.40
2017-05-01T01:19:06.521Z,79.90
2017-05-01T01:21:34.843Z,80.00
2017-05-01T01:24:03.413Z,80.10
2017-05-01T01:26:32.477Z,80.10
2017-05-01T01:29:00.807Z,80.10
2017-05-01T01:31:29.648Z,80.30
2017-05-01T01:33:58.073Z,80.50
2017-05-01T01:36:26.401Z,80.70
2017-05-01T01:38:54.772Z,80.80
2017-05-01T01:41:23.108Z,80.70
2017-05-01T01:43:51.437Z,80.80
2017-05-01T01:46:19.819Z,81.00
2017-05-01T01:48:48.159Z,81.50
2017-05-01T01:51:16.522Z,82.10
2017-05-01T01:53:45.068Z,81.50
2017-05-01T01:56:14.160Z,81.50
2017-05-01T01:58:43.261Z,82.10
2017-05-01T02:01:12.418Z,82.00
2017-05-01T02:03:40.761Z,81.90
2017-05-01T02:06:09.125Z,81.90
2017-05-01T02:08:37.803Z,81.90
2017-05-01T02:11:06.165Z,82.20
2017-05-01T02:13:35.281Z,83.00
2017-05-01T02:16:04.060Z,82.50
2017-05-01T02:18:33.128Z,82.80
2017-05-01T02:21:01.476Z,82.80
2017-05-01T02:23:29.879Z,82.50
2017-05-01T02:25:58.225Z,82.80
2017-05-01T02:28:26.575Z,82.70
2017-05-01T02:30:54.960Z,83.00
2017-05-01T02:33:23.296Z,82.60
2017-05-01T02:35:51.647Z,82.80
2017-05-01T02:38:20.029Z,82.50
2017-05-01T02:40:48.371Z,82.60
2017-05-01T02:43:16.708Z,82.60
2017-05-01T02:45:45.096Z,82.70
2017-05-01T02:48:14.189Z,83.40
2017-05-01T02:50:42.534Z,82.60
2017-05-01T02:53:10.919Z,82.40
2017-05-01T02:55:39.268Z,81.90
2017-05-01T02:58:07.616Z,81.80
2017-05-01T03:00:36.740Z,81.60
2017-05-01T03:03:05.104Z,81.50
2017-05-01T03:05:33.456Z,81.80
2017-05-01T03:08:02.256Z,81.30
2017-05-01T03:10:31.372Z,81.30
2017-05-01T03:12:59.725Z,80.70
2017-05-01T03:15:29.132Z,80.50
2017-05-01T03:17:58.221Z,80.80
2017-05-01T03:20:27.313Z,81.00
2017-05-01T03:22:56.557Z,81.10
2017-05-01T03:25:24.891Z,81.40
2017-05-01T03:27:53.975Z,81.20
2017-05-01T03:30:22.528Z,81.40
2017-05-01T03:32:50.864Z,81.60
2017-05-01T03:35:19.211Z,82.00
2017-05-01T03:37:47.591Z,81.80
2017-05-01T03:40:15.939Z,82.00
2017-05-01T03:42:44.271Z,82.10
2017-05-01T03:45:12.664Z,82.60
2017-05-01T03:47:41.013Z,83.00
2017-05-01T03:50:10.116Z,83.20
2017-05-01T03:52:39.225Z,82.60
2017-05-01T03:55:07.544Z,82.60
2017-05-01T03:57:35.867Z,82.80
2017-05-01T04:00:04.241Z,83.00
2017-05-01T04:02:33.308Z,83.00
2017-05-01T04:05:01.690Z,82.80
2017-05-01T04:07:30.068Z,83.10
2017-05-01T04:09:58.416Z,83.40
2017-05-01T04:12:26.751Z,83.60
2017-05-01T04:14:55.857Z,83.80
2017-05-01T04:17:24.188Z,83.60
2017-05-01T04:19:52.512Z,83.70
2017-05-01T04:22:20.999Z,84.00
2017-05-01T04:24:49.323Z,84.30
2017-05-01T04:27:17.658Z,84.20
2017-05-01T04:29:46.308Z,84.20
2017-05-01T04:32:15.373Z,84.30
2017-05-01T04:34:43.717Z,84.30
2017-05-01T04:37:12.084Z,84.30
2017-05-01T04:39:40.409Z,84.50
2017-05-01T04:42:08.738Z,84.50
2017-05-01T04:44:37.129Z,84.40
2017-05-01T04:47:05.457Z,84.40
2017-05-01T04:49:33.806Z,84.50
2017-05-01T04:52:02.341Z,84.40
2017-05-01T04:54:30.672Z,84.30
2017-05-01T04:56:58.997Z,84.30
2017-05-01T04:59:27.570Z,84.50
2017-05-01T05:01:56.628Z,84.30
2017-05-01T05:04:24.961Z,84.30
2017-05-01T05:06:53.540Z,85.00
2017-05-01T05:09:21.890Z,84.20
2017-05-01T05:11:51.012Z,84.50
2017-05-01T05:14:19.538Z,84.40
2017-05-01T05:16:47.878Z,84.40
2017-05-01T05:19:16.206Z,84.50
2017-05-01T05:21:44.667Z,85.10
2017-05-01T05:24:13.002Z,84.40
2017-05-01T05:26:41.355Z,84.60
2017-05-01T05:29:10.605Z,84.30
2017-05-01T05:31:38.932Z,84.50
2017-05-01T05:34:08.006Z,84.50
2017-05-01T05:36:36.381Z,84.30
2017-05-01T05:39:04.737Z,83.80
2017-05-01T05:41:33.060Z,83.50
2017-05-01T05:44:02.479Z,84.20
2017-05-01T05:46:31.551Z,83.50
2017-05-01T05:48:59.891Z,83.70
2017-05-01T05:51:28.383Z,83.30
2017-05-01T05:53:56.716Z,83.00
2017-05-01T05:56:25.047Z,83.00
2017-05-01T05:58:53.564Z,83.10
2017-05-01T06:01:21.920Z,83.00
2017-05-01T06:03:50.256Z,82.70
2017-05-01T06:06:18.823Z,82.60
2017-05-01T06:08:47.161Z,82.30
2017-05-01T06:11:15.493Z,82.10
2017-05-01T06:13:44.039Z,81.90
2017-05-01T06:16:12.361Z,81.40
2017-05-01T06:18:40.859Z,80.90
2017-05-01T06:21:09.480Z,81.20
2017-05-01T06:23:37.824Z,81.40
2017-05-01T06:26:06.150Z,81.60
2017-05-01T06:28:34.529Z,81.00
2017-05-01T06:31:02.859Z,80.60
2017-05-01T06:33:31.198Z,81.30
2017-05-01T06:35:59.580Z,79.90
2017-05-01T06:38:27.924Z,79.70
2017-05-01T06:40:56.989Z,79.70
2017-05-01T06:43:25.503Z,80.10
2017-05-01T06:45:54.572Z,79.50
2017-05-01T06:48:22.897Z,79.60
2017-05-01T06:50:51.461Z,79.60
2017-05-01T06:53:19.785Z,79.60
2017-05-01T06:55:48.131Z,79.40
2017-05-01T06:58:16.675Z,79.30
2017-05-01T07:00:44.993Z,79.20
2017-05-01T07:03:13.389Z,78.40
2017-05-01T07:05:42.059Z,78.30
2017-05-01T07:08:10.409Z,77.60
2017-05-01T07:10:39.475Z,77.90
2017-05-01T07:13:08.182Z,77.20
2017-05-01T07:15:37.264Z,77.50
2017-05-01T07:18:05.608Z,76.90
2017-05-01T07:20:34.135Z,76.50
2017-05-01T07:23:03.222Z,76.00
2017-05-01T07:25:32.287Z,76.10
2017-05-01T07:28:00.764Z,76.60
2017-05-01T07:30:29.871Z,75.80
2017-05-01T07:32:58.227Z,76.20
2017-05-01T07:35:26.624Z,76.90
2017-05-01T07:37:54.957Z,75.00
2017-05-01T07:40:23.280Z,75.00
2017-05-01T07:42:52.106Z,74.10
2017-05-01T07:45:21.184Z,73.30
2017-05-01T07:47:49.520Z,73.10
2017-05-01T07:50:18.180Z,74.10
2017-05-01T07:52:46.511Z,73.00
2017-05-01T07:55:15.419Z,72.90
2017-05-01T07:57:44.545Z,72.30
2017-05-01T08:00:12.880Z,71.10
2017-05-01T08:02:41.285Z,70.50
2017-05-01T08:05:10.064Z,70.60
2017-05-01T08:07:39.138Z,70.60
2017-05-01T08:10:07.477Z,70.40
2017-05-01T08:12:36.086Z,70.90
2017-05-01T08:15:04.501Z,71.00
2017-05-01T08:17:32.829Z,70.10
2017-05-01T08:20:01.567Z,70.10
2017-05-01T08:22:30.659Z,69.70
2017-05-01T08:24:59.735Z,69.00
2017-05-01T08:27:28.375Z,69.10
2017-05-01T08:29:56.740Z,68.50
2017-05-01T08:32:25.082Z,67.60
2017-05-01T08:34:53.570Z,67.70
2017-05-01T08:37:22.661Z,67.90
2017-05-01T08:39:51.008Z,68.00
2017-05-01T08:42:19.499Z,67.40
2017-05-01T08:44:47.838Z,67.30
2017-05-01T08:47:16.179Z,67.00
2017-05-01T08:49:45.295Z,67.10
2017-05-01T08:52:13.649Z,67.30
2017-05-01T08:54:42.719Z,67.60
2017-05-01T08:57:11.331Z,66.50
2017-05-01T08:59:40.398Z,65.50
2017-05-01T09:02:08.727Z,65.30
2017-05-01T09:04:37.500Z,65.30
2017-05-01T09:07:06.584Z,65.20
2017-05-01T09:09:35.658Z,65.50
2017-05-01T09:12:04.273Z,64.20
2017-05-01T09:14:33.344Z,64.90
2017-05-01T09:17:01.688Z,63.50
2017-05-01T09:19:30.049Z,63.90
2017-05-01T09:21:58.376Z,63.10
2017-05-01T09:24:26.706Z,61.90
2017-05-01T09:26:55.104Z,63.60
2017-05-01T09:29:23.446Z,62.60
2017-05-01T09:31:51.785Z,62.10
2017-05-01T09:34:20.389Z,61.20
2017-05-01T09:36:49.455Z,60.80
2017-05-01T09:39:17.781Z,61.30
2017-05-01T09:41:46.273Z,60.50
2017-05-01T09:44:14.610Z,60.50
2017-05-01T09:46:43.781Z,61.10
2017-05-01T09:49:12.169Z,60.70
2017-05-01T09:51:40.508Z,60.80
2017-05-01T09:54:08.847Z,60.80
2017-05-01T09:56:38.066Z,60.80
2017-05-01T09:59:06.399Z,61.00
2017-05-01T10:01:34.736Z,60.10
2017-05-01T10:04:03.328Z,60.40
2017-05-01T10:06:31.668Z,60.40
2017-05-01T10:09:00.731Z,60.70
2017-05-01T10:11:29.389Z,60.30
2017-05-01T10:13:57.754Z,60.40
2017-05-01T10:16:26.075Z,59.80
2017-05-01T10:18:54.807Z,59.80
2017-05-01T10:21:23.136Z,59.60
2017-05-01T10:23:51.464Z,59.70
2017-05-01T10:26:20.373Z,58.80
2017-05-01T10:28:48.716Z,58.40
2017-05-01T10:31:17.784Z,57.30
2017-05-01T10:33:46.157Z,57.60
2017-05-01T10:36:14.485Z,58.10
2017-05-01T10:38:42.813Z,57.80
2017-05-01T10:41:11.220Z,57.80
2017-05-01T10:43:39.560Z,58.10
2017-05-01T10:46:07.902Z,57.70
2017-05-01T10:48:36.377Z,55.90
2017-05-01T10:51:04.715Z,56.20
2017-05-01T10:53:33.801Z,55.20
2017-05-01T10:56:12.168Z,55.30
2017-05-01T11:01:34.120Z,55.20
2017-05-01T11:04:02.547Z,56.40
2017-05-01T11:06:37.769Z,55.30
2017-05-01T11:09:07.221Z,55.50
2017-05-01T11:14:40.359Z,55.50
2017-05-01T11:17:23.162Z,55.40
2017-05-01T11:19:51.532Z,54.50
2017-05-01T11:22:20.856Z,53.50
2017-05-01T11:25:03.627Z,53.60
2017-05-01T11:27:31.994Z,55.20
2017-05-01T11:32:55.313Z,54.40
2017-05-01T11:35:23.685Z,53.10
2017-05-01T11:37:52.035Z,52.50
2017-05-01T11:40:42.956Z,51.80
2017-05-01T11:43:12.531Z,52.60
2017-05-01T11:45:40.897Z,52.50
2017-05-01T11:48:09.266Z,52.10
2017-05-01T11:50:37.626Z,52.90
2017-05-01T11:53:22.896Z,52.90
2017-05-01T11:55:51.220Z,52.60
2017-05-01T11:58:20.304Z,52.90
2017-05-01T12:00:48.699Z,53.40
2017-05-01T12:03:17.022Z,53.50
2017-05-01T12:05:45.350Z,53.00
2017-05-01T12:08:14.500Z,53.10
2017-05-01T12:10:42.838Z,52.90
2017-05-01T12:13:11.973Z,51.80
2017-05-01T12:15:40.382Z,51.90
2017-05-01T12:18:08.781Z,51.60
2017-05-01T12:20:37.919Z,50.70
2017-05-01T12:23:06.428Z,50.60
2017-05-01T12:25:34.752Z,50.50
2017-05-01T12:28:03.140Z,51.50
2017-05-01T12:30:31.700Z,51.00
2017-05-01T12:33:00.149Z,51.60
2017-05-01T12:35:28.480Z,51.40
2017-05-01T12:37:56.963Z,51.00
2017-05-01T12:40:25.291Z,51.90
2017-05-01T12:42:53.628Z,51.70
2017-05-01T12:45:22.013Z,51.80
2017-05-01T12:47:50.345Z,52.60
2017-05-01T12:50:19.424Z,52.00
2017-05-01T12:52:47.809Z,51.80
2017-05-01T12:55:16.148Z,51.70
2017-05-01T12:57:44.493Z,51.50
2017-05-01T13:00:12.880Z,51.60
2017-05-01T13:02:41.212Z,51.60
2017-05-01T13:05:09.592Z,51.20
2017-05-01T13:07:38.137Z,51.80
2017-05-01T13:10:06.460Z,50.70
2017-05-01T13:12:34.815Z,51.90
2017-05-01T13:15:03.191Z,51.20
2017-05-01T13:17:31.548Z,51.20
2017-05-01T13:19:59.891Z,52.00
2017-05-01T13:22:28.684Z,51.70
2017-05-01T13:24:57.116Z,51.70
2017-05-01T13:27:25.513Z,52.20
2017-05-01T13:29:53.929Z,52.60
2017-05-01T13:32:22.308Z,53.10
2017-05-01T13:34:51.058Z,51.70
2017-05-01T13:37:19.733Z,51.80
2017-05-01T13:39:48.102Z,51.90
2017-05-01T13:42:16.805Z,51.90
2017-05-01T13:44:45.425Z,52.20
2017-05-01T13:47:13.758Z,51.70
2017-05-01T13:49:46.750Z,51.80
2017-05-01T13:52:15.253Z,51.80
2017-05-01T13:54:43.589Z,51.40
2017-05-01T13:57:11.919Z,51.60
2017-05-01T13:59:40.604Z,51.70
2017-05-01T14:02:09.083Z,52.60
2017-05-01T14:04:37.600Z,52.50
2017-05-01T14:07:06.249Z,51.80
2017-05-01T14:09:34.586Z,52.10
2017-05-01T14:12:02.924Z,52.60
2017-05-01T14:14:34.376Z,52.70
2017-05-01T14:17:02.890Z,53.00
2017-05-01T14:19:32.177Z,52.50
2017-05-01T14:22:01.342Z,52.60
2017-05-01T14:24:29.982Z,52.50
2017-05-01T14:26:59.228Z,53.00
2017-05-01T14:29:27.567Z,53.20
2017-05-01T14:31:55.901Z,53.30
2017-05-01T14:34:24.779Z,53.50
2017-05-01T14:36:53.121Z,53.70
2017-05-01T14:39:22.215Z,54.20
2017-05-01T14:41:51.502Z,54.50
2017-05-01T14:44:19.852Z,54.70
2017-05-01T14:46:48.258Z,55.20
2017-05-01T14:49:16.882Z,54.40
2017-05-01T14:51:45.319Z,54.60
2017-05-01T14:54:13.648Z,54.80
2017-05-01T14:56:42.210Z,54.90
2017-05-01T14:59:10.544Z,55.20
2017-05-01T15:01:38.880Z,54.40
2017-05-01T15:04:07.277Z,54.90
2017-05-01T15:06:35.618Z,55.20
2017-05-01T15:09:03.957Z,55.70
2017-05-01T15:11:32.480Z,55.60
2017-05-01T15:14:00.964Z,56.50
2017-05-01T15:16:30.120Z,56.50
2017-05-01T15:18:58.501Z,55.40
2017-05-01T15:21:26.853Z,54.90
2017-05-01T15:26:32.238Z,55.80
2017-05-01T15:29:00.586Z,55.60
2017-05-01T15:31:28.933Z,56.60
2017-05-01T15:33:57.617Z,56.20
2017-05-01T15:36:25.960Z,55.70
2017-05-01T15:38:54.285Z,55.40
2017-05-01T15:41:22.665Z,55.60
2017-05-01T15:43:51.000Z,55.30
2017-05-01T15:46:22.020Z,55.00
2017-05-01T15:48:50.500Z,55.50
2017-05-01T15:51:19.599Z,55.80
2017-05-01T15:53:48.223Z,55.90
2017-05-01T15:56:16.767Z,55.90
2017-05-01T15:58:45.105Z,55.70
2017-05-01T16:01:13.534Z,55.50
2017-05-01T16:03:41.869Z,55.60
2017-05-01T16:06:10.214Z,55.50
2017-05-01T16:08:38.608Z,55.00
2017-05-01T16:11:06.964Z,55.30
2017-05-01T16:13:35.377Z,55.50
2017-05-01T16:16:03.828Z,55.70
2017-05-01T16:18:32.254Z,55.20
2017-05-01T16:21:01.058Z,55.80
2017-05-01T16:23:29.505Z,55.70
2017-05-01T16:25:57.884Z,55.90
2017-05-01T16:28:26.644Z,56.30
2017-05-01T16:30:55.048Z,56.40
2017-05-01T16:33:23.612Z,56.50
2017-05-01T16:35:52.044Z,56.80
2017-05-01T16:40:53.342Z,57.00
2017-05-01T16:45:54.474Z,56.60
2017-05-01T16:48:22.887Z,56.50
2017-05-01T16:50:51.269Z,56.20
2017-05-01T16:53:19.634Z,56.60
2017-05-01T16:55:48.000Z,56.40
2017-05-01T16:58:16.381Z,56.50
2017-05-01T17:00:44.775Z,57.00
2017-05-01T17:03:13.882Z,57.10
2017-05-01T17:05:42.252Z,57.30
2017-05-01T17:08:10.665Z,57.70
2017-05-01T17:10:39.018Z,58.00
2017-05-01T17:13:07.429Z,58.00
2017-05-01T17:15:35.804Z,58.10
2017-05-01T17:18:04.198Z,58.50
2017-05-01T17:20:32.599Z,58.80
2017-05-01T17:23:00.981Z,58.60
2017-05-01T17:25:29.341Z,58.50
2017-05-01T17:27:57.744Z,59.00
2017-05-01T17:30:26.126Z,59.40
2017-05-01T17:32:54.507Z,59.10
2017-05-01T17:35:22.867Z,58.90
2017-05-01T17:37:51.274Z,59.30
2017-05-01T17:40:19.619Z,59.30
2017-05-01T17:42:47.982Z,59.40
2017-05-01T17:45:16.396Z,59.90
2017-05-01T17:47:44.921Z,59.50
2017-05-01T17:50:14.229Z,59.30
2017-05-01T17:52:42.826Z,59.30
2017-05-01T17:55:11.233Z,59.50
2017-05-01T17:57:40.319Z,59.40
2017-05-01T18:00:08.687Z,59.40
2017-05-01T18:02:37.022Z,59.70
2017-05-01T18:05:05.458Z,59.80
2017-05-01T18:07:34.534Z,59.60
2017-05-01T18:10:02.911Z,60.10
2017-05-01T18:12:31.273Z,62.10
2017-05-01T18:14:59.668Z,64.10
2017-05-01T18:17:28.050Z,65.50
2017-05-01T18:19:56.508Z,66.50
2017-05-01T18:22:25.184Z,67.00
2017-05-01T18:24:53.596Z,67.50
2017-05-01T18:27:22.728Z,67.80
2017-05-01T18:29:51.112Z,68.40
2017-05-01T18:32:19.492Z,68.80
2017-05-01T18:34:47.877Z,69.40
2017-05-01T18:37:16.875Z,69.90
2017-05-01T18:39:45.281Z,69.70
2017-05-01T18:42:13.773Z,70.40
2017-05-01T18:44:42.379Z,70.80
2017-05-01T18:47:10.756Z,70.90
2017-05-01T18:49:39.135Z,71.70
2017-05-01T18:52:08.864Z,72.00
2017-05-01T18:54:37.994Z,71.70
2017-05-01T18:57:06.365Z,72.30
2017-05-01T18:59:34.761Z,72.10
2017-05-01T19:02:03.112Z,72.30
2017-05-01T19:04:31.624Z,72.50
2017-05-01T19:07:01.421Z,72.80
2017-05-01T19:09:30.313Z,72.90
2017-05-01T19:11:58.665Z,72.90
2017-05-01T19:14:27.003Z,72.70
2017-05-01T19:16:55.421Z,72.60
2017-05-01T19:19:23.807Z,72.80
2017-05-01T19:21:52.226Z,72.70
2017-05-01T19:24:20.753Z,72.70
2017-05-01T19:26:49.125Z,72.90
2017-05-01T19:29:17.475Z,72.80
2017-05-01T19:31:45.826Z,72.90
2017-05-01T19:34:14.185Z,73.00
2017-05-01T19:36:42.538Z,72.90
2017-05-01T19:39:11.629Z,73.10
2017-05-01T19:41:42.603Z,73.40
2017-05-01T19:44:10.955Z,73.00
2017-05-01T19:46:39.448Z,73.30
2017-05-01T19:49:07.821Z,73.30
2017-05-01T19:51:36.179Z,73.10
2017-05-01T19:54:05.301Z,72.90
2017-05-01T19:56:33.676Z,72.80
2017-05-01T19:59:03.686Z,72.80
2017-05-01T20:01:32.594Z,72.60
2017-05-01T20:04:00.944Z,73.00
2017-05-01T20:06:29.494Z,73.10
2017-05-01T20:08:57.833Z,72.40
2017-05-01T20:11:26.768Z,72.80
2017-05-01T20:13:55.182Z,73.10
2017-05-01T20:16:23.540Z,73.50
2017-05-01T20:18:51.906Z,73.40
2017-05-01T20:21:20.369Z,73.40
2017-05-01T20:23:48.701Z,73.30
2017-05-01T20:26:17.247Z,73.70
2017-05-01T20:28:45.630Z,73.80
2017-05-01T20:31:13.973Z,72.70
2017-05-01T20:33:42.317Z,73.70
2017-05-01T20:36:10.718Z,73.20
2017-05-01T20:38:39.092Z,72.80
2017-05-01T20:41:07.510Z,73.40
2017-05-01T20:43:35.919Z,73.00
2017-05-01T20:46:04.261Z,74.20
2017-05-01T20:48:32.605Z,73.30
2017-05-01T20:51:01.091Z,73.40
2017-05-01T20:53:29.527Z,73.70
2017-05-01T20:55:58.609Z,73.90
2017-05-01T20:58:28.118Z,73.90
2017-05-01T21:00:57.197Z,73.70
2017-05-01T21:03:25.567Z,73.70
2017-05-01T21:05:54.133Z,73.90
2017-05-01T21:08:22.516Z,73.80
2017-05-01T21:10:50.927Z,73.90
2017-05-01T21:13:19.460Z,74.20
2017-05-01T21:15:47.908Z,74.10
2017-05-01T21:18:16.255Z,74.20
2017-05-01T21:20:44.690Z,74.00
2017-05-01T21:23:13.063Z,74.10
2017-05-01T21:25:41.424Z,74.60
2017-05-01T21:28:09.945Z,74.40
2017-05-01T21:30:38.296Z,74.30
2017-05-01T21:33:06.634Z,75.10
2017-05-01T21:35:35.098Z,74.30
2017-05-01T21:38:03.441Z,74.20
2017-05-01T21:40:31.794Z,74.70
2017-05-01T21:43:00.360Z,75.20
2017-05-01T21:45:28.680Z,74.70
2017-05-01T21:47:57.013Z,75.10
2017-05-01T21:50:25.556Z,75.10
2017-05-01T21:52:53.892Z,75.30
2017-05-01T21:55:22.237Z,75.40
2017-05-01T21:57:50.708Z,75.60
2017-05-01T22:00:19.053Z,75.60
2017-05-01T22:02:47.393Z,75.50
2017-05-01T22:05:15.764Z,75.90
2017-05-01T22:07:44.106Z,75.80
2017-05-01T22:10:12.481Z,75.60
2017-05-01T22:12:41.437Z,76.00
2017-05-01T22:15:09.772Z,76.10
2017-05-01T22:17:38.128Z,76.20
2017-05-01T22:20:06.915Z,76.70
2017-05-01T22:22:35.269Z,76.20
2017-05-01T22:25:03.612Z,76.40
2017-05-01T22:27:32.753Z,77.40
2017-05-01T22:30:01.096Z,77.30
2017-05-01T22:32:29.433Z,77.20
2017-05-01T22:34:57.913Z,77.30
2017-05-01T22:37:26.289Z,77.60
2017-05-01T22:39:54.632Z,77.70
2017-05-01T22:42:23.184Z,77.80
2017-05-01T22:44:51.520Z,78.20
2017-05-01T22:47:19.859Z,78.50
2017-05-01T22:49:48.334Z,78.70
2017-05-01T22:52:16.693Z,79.00
2017-05-01T22:54:45.770Z,79.70
2017-05-01T22:57:14.386Z,79.30
2017-05-01T22:59:43.465Z,79.50
2017-05-01T23:02:12.544Z,79.70
2017-05-01T23:04:40.999Z,79.90
2017-05-01T23:07:09.328Z,79.90
2017-05-01T23:09:38.417Z,80.10
2017-05-01T23:12:07.666Z,80.20
2017-05-01T23:14:35.989Z,81.60
2017-05-01T23:17:05.059Z,81.90
2017-05-01T23:19:33.429Z,82.20
2017-05-01T23:22:01.801Z,82.40
2017-05-01T23:24:30.132Z,82.80
2017-05-01T23:26:59.373Z,82.70
2017-05-01T23:29:27.697Z,82.90
2017-05-01T23:31:56.048Z,83.10
2017-05-01T23:34:24.496Z,83.40
2017-05-01T23:36:53.696Z,83.20
2017-05-01T23:39:22.020Z,83.30
2017-05-01T23:41:51.265Z,83.90
2017-05-01T23:44:19.605Z,83.60
2017-05-01T23:46:48.699Z,83.80
2017-05-01T23:49:17.894Z,84.00
2017-05-01T23:51:46.965Z,83.40
2017-05-01T23:54:15.594Z,83.40
2017-05-01T23:56:44.118Z,83.30
2017-05-01T23:59:12.453Z,83.30
